createdAt,value
2019-04-22T00:00:36.143Z,9.08
2019-04-22T00:02:11.899Z,8.55
2019-04-22T00:03:52.422Z,8.30
2019-04-22T00:05:44.095Z,8.73
2019-04-22T00:07:24.094Z,8.43
2019-04-22T00:09:02.255Z,7.85
2019-04-22T00:10:44.917Z,8.63
2019-04-22T00:12:24.684Z,7.95
2019-04-22T00:15:30.964Z,7.90
2019-04-22T00:17:35.291Z,8.65
2019-04-22T00:19:01.463Z,8.20
2019-04-22T00:20:22.978Z,7.65
2019-04-22T00:22:02.520Z,8.40
2019-04-22T00:23:31.348Z,8.95
2019-04-22T00:25:14.498Z,8.58
2019-04-22T00:26:50.002Z,8.03
2019-04-22T00:28:30.328Z,8.43
2019-04-22T00:30:09.151Z,8.40
2019-04-22T00:31:57.529Z,7.92
2019-04-22T00:33:34.289Z,8.65
2019-04-22T00:35:05.914Z,8.78
2019-04-22T00:36:42.013Z,8.23
2019-04-22T00:38:23.995Z,8.08
2019-04-22T00:39:57.355Z,8.40
2019-04-22T00:41:37.181Z,7.83
2019-04-22T00:43:13.563Z,8.03
2019-04-22T00:44:51.876Z,8.68
2019-04-22T00:46:25.170Z,8.48
2019-04-22T00:48:09.139Z,7.72
2019-04-22T00:53:02.513Z,7.78
2019-04-22T00:54:28.197Z,7.62
2019-04-22T00:57:46.453Z,8.10
2019-04-22T00:59:23.776Z,7.92
2019-04-22T01:01:01.644Z,8.45
2019-04-22T01:02:41.850Z,7.85
2019-04-22T01:05:48.231Z,7.22
2019-04-22T01:07:23.723Z,7.35
2019-04-22T01:09:05.846Z,7.15
2019-04-22T01:10:44.059Z,7.50
2019-04-22T01:12:24.191Z,7.30
2019-04-22T01:13:52.183Z,7.47
2019-04-22T01:15:33.928Z,7.45
2019-04-22T01:17:09.594Z,7.47
2019-04-22T01:18:47.508Z,7.33
2019-04-22T01:20:38.551Z,7.25
2019-04-22T01:22:13.318Z,7.90
2019-04-22T01:23:31.147Z,7.03
2019-04-22T01:25:08.332Z,6.85
2019-04-22T01:26:39.993Z,7.75
2019-04-22T01:28:14.215Z,8.08
2019-04-22T01:29:51.194Z,8.75
2019-04-22T01:31:17.938Z,7.85
2019-04-22T01:32:52.140Z,8.05
2019-04-22T01:34:44.937Z,7.83
2019-04-22T01:36:22.884Z,7.80
2019-04-22T01:37:54.741Z,7.37
2019-04-22T01:39:37.549Z,8.55
2019-04-22T01:41:16.140Z,7.70
2019-04-22T01:42:55.746Z,8.78
2019-04-22T01:44:42.215Z,8.10
2019-04-22T01:46:08.348Z,8.48
2019-04-22T01:47:46.658Z,8.25
2019-04-22T01:49:14.683Z,8.40
2019-04-22T01:50:50.145Z,8.13
2019-04-22T01:52:29.663Z,9.05
2019-04-22T01:54:07.155Z,9.53
2019-04-22T01:55:43.948Z,10.23
2019-04-22T01:57:18.746Z,10.88
2019-04-22T01:58:44.173Z,10.25
2019-04-22T02:00:38.432Z,10.15
2019-04-22T02:02:13.414Z,10.15
2019-04-22T02:03:53.207Z,10.10
2019-04-22T02:07:03.221Z,8.75
2019-04-22T02:08:52.768Z,10.18
2019-04-22T02:10:11.066Z,9.75
2019-04-22T02:13:29.113Z,9.23
2019-04-22T02:15:04.543Z,9.88
2019-04-22T02:16:41.285Z,9.15
2019-04-22T02:18:23.073Z,9.45
2019-04-22T02:19:57.900Z,9.03
2019-04-22T02:21:30.185Z,10.43
2019-04-22T02:24:58.610Z,10.15
2019-04-22T02:26:41.934Z,9.40
2019-04-22T02:28:28.053Z,9.25
2019-04-22T02:29:47.364Z,9.55
2019-04-22T02:31:37.081Z,10.00
2019-04-22T02:33:34.483Z,9.85
2019-04-22T02:38:10.054Z,10.00
2019-04-22T02:39:45.208Z,10.30
2019-04-22T02:43:01.676Z,10.08
2019-04-22T02:44:31.451Z,10.23
2019-04-22T02:46:22.946Z,9.88
2019-04-22T02:47:42.201Z,10.10
2019-04-22T02:49:25.485Z,9.68
2019-04-22T02:51:08.730Z,10.00
2019-04-22T02:55:49.289Z,10.13
2019-04-22T02:57:30.199Z,10.13
2019-04-22T02:59:12.429Z,10.75
2019-04-22T03:00:58.401Z,11.33
2019-04-22T03:02:21.433Z,10.60
2019-04-22T03:05:36.642Z,9.93
2019-04-22T03:06:59.701Z,9.70
2019-04-22T03:10:18.776Z,10.32
2019-04-22T03:12:02.526Z,10.70
2019-04-22T03:13:40.631Z,10.05
2019-04-22T03:17:04.749Z,10.25
2019-04-22T03:20:02.576Z,9.85
2019-04-22T03:21:33.726Z,9.83
2019-04-22T03:23:16.970Z,9.30
2019-04-22T03:24:40.598Z,9.38
2019-04-22T03:26:26.993Z,9.03
2019-04-22T03:28:10.330Z,9.58
2019-04-22T03:33:52.165Z,9.35
2019-04-22T03:37:26.981Z,9.38
2019-04-22T03:39:06.305Z,9.00
2019-04-22T03:43:28.134Z,8.70
2019-04-22T03:45:17.007Z,8.50
2019-04-22T03:46:50.981Z,8.20
2019-04-22T03:48:26.107Z,7.70
2019-04-22T03:51:38.277Z,8.50
2019-04-22T03:54:49.510Z,7.80
2019-04-22T03:56:51.111Z,8.48
2019-04-22T03:59:41.415Z,8.80
2019-04-22T04:01:18.744Z,8.40
2019-04-22T04:02:45.713Z,8.38
2019-04-22T04:06:00.050Z,8.23
2019-04-22T04:07:48.109Z,8.43
2019-04-22T04:09:19.509Z,8.38
2019-04-22T04:10:49.855Z,8.35
2019-04-22T04:14:09.329Z,8.20
2019-04-22T04:20:39.427Z,8.63
2019-04-22T04:22:19.199Z,8.18
2019-04-22T04:30:26.087Z,8.63
2019-04-22T04:31:59.039Z,8.88
2019-04-22T04:33:23.505Z,9.18
2019-04-22T04:35:12.733Z,9.00
2019-04-22T04:36:41.689Z,8.08
2019-04-22T04:37:58.852Z,7.90
2019-04-22T04:40:05.199Z,8.30
2019-04-22T04:41:34.168Z,8.25
2019-04-22T04:43:18.958Z,7.70
2019-04-22T04:44:58.862Z,8.50
2019-04-22T04:46:24.241Z,8.28
2019-04-22T04:48:09.225Z,8.20
2019-04-22T04:55:51.875Z,7.80
2019-04-22T05:02:29.090Z,8.60
2019-04-22T05:05:35.403Z,7.83
2019-04-22T05:10:39.179Z,7.92
2019-04-22T05:13:39.502Z,8.28
2019-04-22T05:15:21.130Z,8.33
2019-04-22T05:18:18.978Z,8.70
2019-04-22T05:20:05.147Z,8.93
2019-04-22T05:23:05.780Z,8.27
2019-04-22T05:24:42.404Z,8.90
2019-04-22T05:28:11.833Z,7.97
2019-04-22T05:29:42.004Z,8.47
2019-04-22T05:31:16.559Z,8.17
2019-04-22T05:32:52.908Z,7.27
2019-04-22T05:34:22.890Z,7.70
2019-04-22T05:36:02.970Z,7.20
2019-04-22T05:37:33.743Z,7.17
2019-04-22T05:39:13.962Z,7.40
2019-04-22T05:40:40.776Z,6.23
2019-04-22T05:42:20.291Z,6.60
2019-04-22T05:44:03.563Z,7.57
2019-04-22T05:45:33.139Z,7.37
2019-04-22T05:47:08.542Z,5.93
2019-04-22T05:48:49.263Z,6.60
2019-04-22T05:52:06.098Z,7.10
2019-04-22T05:53:40.055Z,6.70
2019-04-22T05:55:16.428Z,6.33
2019-04-22T05:56:43.010Z,6.47
2019-04-22T05:58:31.296Z,6.10
2019-04-22T06:00:06.488Z,6.47
2019-04-22T06:01:52.183Z,6.93
2019-04-22T06:03:16.485Z,6.57
2019-04-22T06:04:58.262Z,6.73
2019-04-22T06:06:32.251Z,6.17
2019-04-22T06:08:11.878Z,6.13
2019-04-22T06:09:49.248Z,6.57
2019-04-22T06:11:26.790Z,5.80
2019-04-22T06:13:02.161Z,6.53
2019-04-22T06:14:42.541Z,5.87
2019-04-22T06:16:20.525Z,6.50
2019-04-22T06:18:04.527Z,6.13
2019-04-22T06:19:31.553Z,5.93
2019-04-22T06:21:11.478Z,6.20
2019-04-22T06:24:26.028Z,5.73
2019-04-22T06:26:09.883Z,6.13
2019-04-22T06:27:37.464Z,6.40
2019-04-22T06:30:49.029Z,5.80
2019-04-22T06:32:28.884Z,5.47
2019-04-22T06:34:02.278Z,6.40
2019-04-22T06:35:36.317Z,6.23
2019-04-22T06:37:13.187Z,6.60
2019-04-22T06:38:46.578Z,5.93
2019-04-22T06:40:27.515Z,5.93
2019-04-22T06:42:01.130Z,6.93
2019-04-22T06:43:38.494Z,6.30
2019-04-22T06:45:11.793Z,6.73
2019-04-22T06:46:47.182Z,6.80
2019-04-22T06:48:23.770Z,5.87
2019-04-22T06:49:59.245Z,5.57
2019-04-22T06:51:37.721Z,6.67
2019-04-22T06:53:33.219Z,7.10
2019-04-22T06:54:54.754Z,6.33
2019-04-22T06:56:22.252Z,6.50
2019-04-22T06:58:08.304Z,7.27
2019-04-22T06:59:36.616Z,7.10
2019-04-22T07:01:24.565Z,5.70
2019-04-22T07:04:29.773Z,6.53
2019-04-22T07:06:07.393Z,6.63
2019-04-22T07:07:52.116Z,6.43
2019-04-22T07:14:06.901Z,6.33
2019-04-22T07:15:50.496Z,5.87
2019-04-22T07:17:23.195Z,6.90
2019-04-22T07:19:01.911Z,6.57
2019-04-22T07:20:41.635Z,6.17
2019-04-22T07:22:18.129Z,5.90
2019-04-22T07:24:03.007Z,6.10
2019-04-22T07:25:23.410Z,6.67
2019-04-22T07:27:05.281Z,5.90
2019-04-22T07:28:37.789Z,6.90
2019-04-22T07:31:55.795Z,6.90
2019-04-22T07:33:34.848Z,6.77
2019-04-22T07:35:08.580Z,6.47
2019-04-22T07:38:25.598Z,6.47
2019-04-22T07:39:50.219Z,6.23
2019-04-22T07:41:31.729Z,6.37
2019-04-22T07:43:15.506Z,6.90
2019-04-22T07:46:19.819Z,6.83
2019-04-22T07:48:06.092Z,6.47
2019-04-22T07:51:16.793Z,6.70
2019-04-22T07:52:51.391Z,6.90
2019-04-22T07:54:26.506Z,6.40
2019-04-22T07:56:08.395Z,7.20
2019-04-22T07:57:39.601Z,6.60
2019-04-22T07:59:26.879Z,7.60
2019-04-22T08:00:55.339Z,7.10
2019-04-22T08:02:40.563Z,6.80
2019-04-22T08:04:16.390Z,6.80
2019-04-22T08:05:51.935Z,7.13
2019-04-22T08:07:24.214Z,7.53
2019-04-22T08:09:01.923Z,7.30
2019-04-22T08:12:12.089Z,6.10
2019-04-22T08:13:49.851Z,6.70
2019-04-22T08:15:31.257Z,5.17
2019-04-22T08:17:07.311Z,5.67
2019-04-22T08:18:59.672Z,5.73
2019-04-22T08:20:19.031Z,4.90
2019-04-22T08:21:52.210Z,4.80
2019-04-22T08:23:31.699Z,5.03
2019-04-22T08:25:04.152Z,4.13
2019-04-22T08:26:49.787Z,4.20
2019-04-22T08:28:17.935Z,4.03
2019-04-22T08:31:46.867Z,4.13
2019-04-22T08:33:15.875Z,4.60
2019-04-22T08:34:42.533Z,4.93
2019-04-22T08:38:02.434Z,4.10
2019-04-22T08:39:38.555Z,4.30
2019-04-22T08:41:23.340Z,4.00
2019-04-22T08:42:56.974Z,4.43
2019-04-22T08:44:39.137Z,4.47
2019-04-22T08:46:13.480Z,4.00
2019-04-22T08:47:44.300Z,4.10
2019-04-22T08:49:18.905Z,4.63
2019-04-22T08:50:58.593Z,3.97
2019-04-22T08:52:36.352Z,4.33
2019-04-22T08:55:51.356Z,4.10
2019-04-22T08:57:33.008Z,3.60
2019-04-22T08:59:04.782Z,4.03
2019-04-22T09:00:43.910Z,4.30
2019-04-22T09:02:20.589Z,4.60
2019-04-22T09:03:52.675Z,4.90
2019-04-22T09:05:42.389Z,4.37
2019-04-22T09:07:12.724Z,4.30
2019-04-22T09:08:45.637Z,3.97
2019-04-22T09:10:21.708Z,3.37
2019-04-22T09:11:54.632Z,3.87
2019-04-22T09:13:31.917Z,4.40
2019-04-22T09:15:08.641Z,3.80
2019-04-22T09:16:45.960Z,3.20
2019-04-22T09:18:21.668Z,4.03
2019-04-22T09:19:56.342Z,3.50
2019-04-22T09:21:32.630Z,3.33
2019-04-22T09:23:07.569Z,2.93
2019-04-22T09:26:27.372Z,3.70
2019-04-22T09:27:56.021Z,3.00
2019-04-22T09:29:39.733Z,3.60
2019-04-22T09:31:15.477Z,3.10
2019-04-22T09:32:59.167Z,3.20
2019-04-22T09:34:29.775Z,3.40
2019-04-22T09:36:12.748Z,3.10
2019-04-22T09:37:47.269Z,3.03
2019-04-22T09:39:19.499Z,3.13
2019-04-22T09:40:52.471Z,2.87
2019-04-22T09:42:32.551Z,2.83
2019-04-22T09:44:02.607Z,2.73
2019-04-22T09:45:43.359Z,2.60
2019-04-22T09:47:19.418Z,2.70
2019-04-22T09:49:00.343Z,2.60
2019-04-22T09:50:38.478Z,2.70
2019-04-22T09:52:11.706Z,2.53
2019-04-22T09:53:57.785Z,2.83
2019-04-22T09:55:21.709Z,2.73
2019-04-22T09:57:01.878Z,2.40
2019-04-22T09:58:40.304Z,3.23
2019-04-22T10:00:13.798Z,3.00
2019-04-22T10:02:04.084Z,2.60
2019-04-22T10:03:25.906Z,2.73
2019-04-22T10:05:07.553Z,2.60
2019-04-22T10:06:36.723Z,2.43
2019-04-22T10:08:24.672Z,2.67
2019-04-22T10:11:35.054Z,2.57
2019-04-22T10:13:03.182Z,2.80
2019-04-22T10:14:46.445Z,2.60
2019-04-22T10:16:29.226Z,2.63
2019-04-22T10:17:58.206Z,2.90
2019-04-22T10:19:31.420Z,3.27
2019-04-22T10:21:10.125Z,2.50
2019-04-22T10:22:46.066Z,2.60
2019-04-22T10:24:19.265Z,2.73
2019-04-22T10:26:02.552Z,2.67
2019-04-22T10:27:32.751Z,2.63
2019-04-22T10:29:13.683Z,2.83
2019-04-22T10:30:46.815Z,3.00
2019-04-22T10:32:25.211Z,2.57
2019-04-22T10:33:53.213Z,2.77
2019-04-22T10:35:18.933Z,2.40
2019-04-22T10:36:53.150Z,2.50
2019-04-22T10:38:26.601Z,2.30
2019-04-22T10:40:04.765Z,2.40
2019-04-22T10:41:38.926Z,2.00
2019-04-22T10:43:14.997Z,2.23
2019-04-22T10:44:51.748Z,2.20
2019-04-22T10:46:26.416Z,2.37
2019-04-22T10:48:01.662Z,2.57
2019-04-22T10:49:36.232Z,2.20
2019-04-22T10:51:10.722Z,2.40
2019-04-22T10:52:45.580Z,2.37
2019-04-22T10:54:20.078Z,2.83
2019-04-22T10:55:54.536Z,2.13
2019-04-22T10:57:29.789Z,2.00
2019-04-22T10:59:04.866Z,1.70
2019-04-22T11:00:41.783Z,2.00
2019-04-22T11:02:17.334Z,2.07
2019-04-22T11:03:53.160Z,2.10
2019-04-22T11:05:28.289Z,1.50
2019-04-22T11:07:07.266Z,1.50
2019-04-22T11:08:50.045Z,1.60
2019-04-22T11:10:35.491Z,1.50
2019-04-22T11:12:02.150Z,1.73
2019-04-22T11:13:31.803Z,1.63
2019-04-22T11:15:07.792Z,1.70
2019-04-22T11:16:43.593Z,1.40
2019-04-22T11:18:19.835Z,1.23
2019-04-22T11:19:55.354Z,1.50
2019-04-22T11:21:31.644Z,1.50
2019-04-22T11:23:06.924Z,1.33
2019-04-22T11:24:41.729Z,1.20
2019-04-22T11:26:17.758Z,1.30
2019-04-22T11:27:53.741Z,1.00
2019-04-22T11:29:29.908Z,1.00
2019-04-22T11:31:06.200Z,1.50
2019-04-22T11:32:40.777Z,1.43
2019-04-22T11:34:17.089Z,1.40
2019-04-22T11:35:52.122Z,1.23
2019-04-22T11:37:28.286Z,1.20
2019-04-22T11:39:06.121Z,1.30
2019-04-22T11:40:43.892Z,1.30
2019-04-22T11:42:16.366Z,1.43
2019-04-22T11:43:51.354Z,1.77
2019-04-22T11:45:27.086Z,1.70
2019-04-22T11:47:03.389Z,1.57
2019-04-22T11:48:38.406Z,1.60
2019-04-22T11:50:15.783Z,2.03
2019-04-22T11:51:51.808Z,1.70
2019-04-22T11:53:27.028Z,1.93
2019-04-22T11:55:01.794Z,1.83
2019-04-22T11:56:37.007Z,1.70
2019-04-22T11:58:12.897Z,1.70
2019-04-22T11:59:48.954Z,1.87
2019-04-22T12:01:24.643Z,2.00
2019-04-22T12:03:00.747Z,2.30
2019-04-22T12:04:35.970Z,2.10
2019-04-22T12:06:10.834Z,2.90
2019-04-22T12:07:47.027Z,2.60
2019-04-22T12:09:23.815Z,2.67
2019-04-22T12:11:01.916Z,2.77
2019-04-22T12:12:36.305Z,3.00
2019-04-22T12:14:11.822Z,3.20
2019-04-22T12:15:46.899Z,3.07
2019-04-22T12:17:22.362Z,2.70
2019-04-22T12:18:58.760Z,3.00
2019-04-22T12:20:35.002Z,2.60
2019-04-22T12:22:11.055Z,2.60
2019-04-22T12:23:47.247Z,2.50
2019-04-22T12:25:36.138Z,2.20
2019-04-22T12:27:00.377Z,2.30
2019-04-22T12:28:35.268Z,2.10
2019-04-22T12:30:11.458Z,2.43
2019-04-22T12:31:47.267Z,2.53
2019-04-22T12:33:23.465Z,2.50
2019-04-22T12:34:59.651Z,2.57
2019-04-22T12:36:36.142Z,2.70
2019-04-22T12:38:13.120Z,2.43
2019-04-22T12:39:49.872Z,2.13
2019-04-22T12:41:25.843Z,2.10
2019-04-22T12:43:04.647Z,2.70
2019-04-22T12:44:39.189Z,2.20
2019-04-22T12:46:14.523Z,2.60
2019-04-22T12:47:50.441Z,2.40
2019-04-22T12:49:26.142Z,2.13
2019-04-22T12:51:01.004Z,2.00
2019-04-22T12:52:43.718Z,1.90
2019-04-22T12:54:13.146Z,2.43
2019-04-22T12:55:48.495Z,2.40
2019-04-22T12:57:24.768Z,1.87
2019-04-22T12:58:59.624Z,1.93
2019-04-22T13:00:36.216Z,2.27
2019-04-22T13:02:11.618Z,2.70
2019-04-22T13:03:46.546Z,2.03
2019-04-22T13:05:22.812Z,2.03
2019-04-22T13:06:58.070Z,2.27
2019-04-22T13:08:33.935Z,2.40
2019-04-22T13:10:10.961Z,2.27
2019-04-22T13:11:46.042Z,2.20
2019-04-22T13:13:20.807Z,2.47
2019-04-22T13:14:57.135Z,2.30
2019-04-22T13:16:33.165Z,2.17
2019-04-22T13:18:19.039Z,2.53
2019-04-22T13:19:44.793Z,2.47
2019-04-22T13:21:20.536Z,2.23
2019-04-22T13:22:56.826Z,2.47
2019-04-22T13:24:32.087Z,2.27
2019-04-22T13:26:07.413Z,2.57
2019-04-22T13:27:42.897Z,2.60
2019-04-22T13:29:19.234Z,2.80
2019-04-22T13:30:54.795Z,2.93
2019-04-22T13:32:31.226Z,2.77
2019-04-22T13:34:10.519Z,2.53
2019-04-22T13:35:43.831Z,2.87
2019-04-22T13:37:19.127Z,2.70
2019-04-22T13:38:54.959Z,2.80
2019-04-22T13:40:30.781Z,2.50
2019-04-22T13:42:09.914Z,2.27
2019-04-22T13:43:42.913Z,2.80
2019-04-22T13:45:17.970Z,2.30
2019-04-22T13:47:08.186Z,2.30
2019-04-22T13:48:47.020Z,2.13
2019-04-22T13:50:47.670Z,2.10
2019-04-22T13:52:20.668Z,2.50
2019-04-22T13:54:18.497Z,2.10
2019-04-22T13:55:43.650Z,2.30
2019-04-22T13:56:48.002Z,2.17
2019-04-22T13:58:17.094Z,2.20
2019-04-22T13:59:48.025Z,2.20
2019-04-22T14:01:22.951Z,2.10
2019-04-22T14:03:16.226Z,2.50
2019-04-22T14:04:52.681Z,2.40
2019-04-22T14:06:27.309Z,2.40
2019-04-22T14:08:02.906Z,2.10
2019-04-22T14:09:38.325Z,2.40
2019-04-22T14:11:21.551Z,1.93
2019-04-22T14:12:49.099Z,2.27
2019-04-22T14:14:23.998Z,1.63
2019-04-22T14:15:59.464Z,1.70
2019-04-22T14:17:34.852Z,1.80
2019-04-22T14:19:09.996Z,2.10
2019-04-22T14:20:44.946Z,1.83
2019-04-22T14:22:20.121Z,1.80
2019-04-22T14:23:54.556Z,2.20
2019-04-22T14:25:30.389Z,2.00
2019-04-22T14:27:19.252Z,1.97
2019-04-22T14:28:41.706Z,1.77
2019-04-22T14:30:16.786Z,1.90
2019-04-22T14:33:27.872Z,2.23
2019-04-22T14:35:03.068Z,2.37
2019-04-22T14:36:37.537Z,2.10
2019-04-22T14:38:12.416Z,2.00
2019-04-22T14:39:48.143Z,1.77
2019-04-22T14:43:22.774Z,2.00
2019-04-22T14:44:03.615Z,1.97
2019-04-22T14:44:12.633Z,2.27
2019-04-22T14:47:00.359Z,2.27
2019-04-22T14:48:11.216Z,2.20
2019-04-22T14:49:49.190Z,2.23
2019-04-22T14:51:16.052Z,2.13
2019-04-22T14:53:02.387Z,2.07
2019-04-22T14:54:28.401Z,6.20
2019-04-22T14:55:50.512Z,2.30
2019-04-22T14:57:27.737Z,2.10
2019-04-22T14:59:02.952Z,2.50
2019-04-22T15:00:38.188Z,2.50
2019-04-22T15:02:13.958Z,2.30
2019-04-22T15:03:48.528Z,2.20
2019-04-22T15:05:23.929Z,2.47
2019-04-22T15:06:59.096Z,2.60
2019-04-22T15:08:35.058Z,2.53
2019-04-22T15:10:10.480Z,2.70
2019-04-22T15:11:55.773Z,2.80
2019-04-22T15:13:21.400Z,2.40
2019-04-22T15:14:55.760Z,2.40
2019-04-22T15:16:42.606Z,2.60
2019-04-22T15:18:42.373Z,2.77
2019-04-22T15:20:34.921Z,2.13
2019-04-22T15:22:10.439Z,2.90
2019-04-22T15:23:46.561Z,3.00
2019-04-22T15:25:21.113Z,2.57
2019-04-22T15:26:58.714Z,2.50
2019-04-22T15:28:33.478Z,2.30
2019-04-22T15:30:09.607Z,2.60
2019-04-22T15:31:45.093Z,2.60
2019-04-22T15:33:19.637Z,3.23
2019-04-22T15:34:55.397Z,2.77
2019-04-22T15:36:30.488Z,2.80
2019-04-22T15:38:05.100Z,2.90
2019-04-22T15:39:39.686Z,2.70
2019-04-22T15:41:14.739Z,3.00
2019-04-22T15:42:50.730Z,2.57
2019-04-22T15:44:26.088Z,3.00
2019-04-22T15:46:03.682Z,3.00
2019-04-22T15:47:37.763Z,2.80
2019-04-22T15:49:13.810Z,3.30
2019-04-22T15:50:48.836Z,3.23
2019-04-22T15:52:32.079Z,3.37
2019-04-22T15:54:01.324Z,2.97
2019-04-22T15:55:36.826Z,3.10
2019-04-22T15:57:12.848Z,3.00
2019-04-22T15:58:47.970Z,2.80
2019-04-22T16:00:36.732Z,3.47
2019-04-22T16:02:00.746Z,3.13
2019-04-22T16:03:36.680Z,3.27
2019-04-22T16:05:12.780Z,3.40
2019-04-22T16:06:47.564Z,3.13
2019-04-22T16:08:21.981Z,3.50
2019-04-22T16:09:57.529Z,7.20
2019-04-22T16:11:33.845Z,3.37
2019-04-22T16:13:16.455Z,3.40
2019-04-22T16:14:49.467Z,3.37
2019-04-22T16:16:22.924Z,3.50
2019-04-22T16:18:01.128Z,4.00
2019-04-22T16:19:35.182Z,4.13
2019-04-22T16:21:11.296Z,3.70
2019-04-22T16:23:05.496Z,3.70
2019-04-22T16:24:58.293Z,4.00
2019-04-22T16:26:48.967Z,3.70
2019-04-22T16:28:24.974Z,3.53
2019-04-22T16:30:01.332Z,3.13
2019-04-22T16:31:37.641Z,2.80
2019-04-22T16:33:15.067Z,2.87
2019-04-22T16:34:50.165Z,3.23
2019-04-22T16:36:25.032Z,3.10
2019-04-22T16:38:01.042Z,3.30
2019-04-22T16:39:36.562Z,3.10
2019-04-22T16:41:12.927Z,3.10
2019-04-22T16:42:55.169Z,3.30
2019-04-22T16:44:24.938Z,3.33
2019-04-22T16:46:01.449Z,3.43
2019-04-22T16:47:37.422Z,3.60
2019-04-22T16:49:13.882Z,3.30
2019-04-22T16:50:52.207Z,3.30
2019-04-22T16:52:25.991Z,3.10
2019-04-22T16:54:02.178Z,3.53
2019-04-22T16:55:37.253Z,3.40
2019-04-22T16:57:12.192Z,3.40
2019-04-22T16:58:48.513Z,3.80
2019-04-22T17:00:25.017Z,3.53
2019-04-22T17:02:06.822Z,3.23
2019-04-22T17:04:00.752Z,2.80
2019-04-22T17:05:53.742Z,3.00
2019-04-22T17:07:29.993Z,3.00
2019-04-22T17:09:08.963Z,3.27
2019-04-22T17:10:44.281Z,2.90
2019-04-22T17:12:19.563Z,3.20
2019-04-22T17:13:55.213Z,3.20
2019-04-22T17:15:31.291Z,3.20
2019-04-22T17:17:06.583Z,3.50
2019-04-22T17:18:41.616Z,2.97
2019-04-22T17:20:17.444Z,3.47
2019-04-22T17:21:53.456Z,3.30
2019-04-22T17:23:29.669Z,3.33
2019-04-22T17:25:06.451Z,3.53
2019-04-22T17:26:42.369Z,3.80
2019-04-22T17:28:17.507Z,3.53
2019-04-22T17:29:52.578Z,3.27
2019-04-22T17:31:28.857Z,3.57
2019-04-22T17:33:05.120Z,3.60
2019-04-22T17:34:41.350Z,3.67
2019-04-22T17:36:16.933Z,3.53
2019-04-22T17:38:01.779Z,3.60
2019-04-22T17:39:41.159Z,3.57
2019-04-22T17:41:20.913Z,3.63
2019-04-22T17:43:06.729Z,3.33
2019-04-22T17:44:43.869Z,3.30
2019-04-22T17:46:32.278Z,3.63
2019-04-22T17:48:30.901Z,3.47
2019-04-22T17:50:13.409Z,3.87
2019-04-22T17:52:15.546Z,4.10
2019-04-22T17:53:50.974Z,3.80
2019-04-22T17:55:21.418Z,3.80
2019-04-22T17:56:53.905Z,3.97
2019-04-22T17:58:34.756Z,3.70
2019-04-22T18:00:07.029Z,3.70
2019-04-22T18:01:43.780Z,4.00
2019-04-22T18:03:16.164Z,3.90
2019-04-22T18:05:05.531Z,3.67
2019-04-22T18:07:07.278Z,4.10
2019-04-22T18:08:34.591Z,4.10
2019-04-22T18:10:27.087Z,4.37
2019-04-22T18:11:52.043Z,4.30
2019-04-22T18:13:31.872Z,4.10
2019-04-22T18:15:04.310Z,4.80
2019-04-22T18:16:42.763Z,4.30
2019-04-22T18:18:21.702Z,4.83
2019-04-22T18:19:49.185Z,5.03
2019-04-22T18:21:23.216Z,5.50
2019-04-22T18:22:54.766Z,5.43
2019-04-22T18:24:28.351Z,5.37
2019-04-22T18:26:14.117Z,5.30
2019-04-22T18:27:59.027Z,5.67
2019-04-22T18:29:28.401Z,4.53
2019-04-22T18:31:01.291Z,4.70
2019-04-22T18:32:46.801Z,5.30
2019-04-22T18:34:15.633Z,4.93
2019-04-22T18:35:57.286Z,5.23
2019-04-22T18:37:36.053Z,5.00
2019-04-22T18:39:20.968Z,5.20
2019-04-22T18:40:44.771Z,4.70
2019-04-22T18:42:21.769Z,5.33
2019-04-22T18:44:04.284Z,5.03
2019-04-22T18:47:11.701Z,5.03
2019-04-22T18:48:54.229Z,5.17
2019-04-22T18:50:34.142Z,5.50
2019-04-22T18:52:19.576Z,5.60
2019-04-22T18:54:10.345Z,5.40
2019-04-22T18:55:41.380Z,5.90
2019-04-22T18:57:17.034Z,5.90
2019-04-22T18:58:51.013Z,5.87
2019-04-22T19:00:18.574Z,5.80
2019-04-22T19:01:58.634Z,5.90
2019-04-22T19:03:32.203Z,6.33
2019-04-22T19:05:17.465Z,6.27
2019-04-22T19:07:01.789Z,5.77
2019-04-22T19:08:36.745Z,5.90
2019-04-22T19:10:17.391Z,5.73
2019-04-22T19:12:02.016Z,5.87
2019-04-22T19:13:49.675Z,5.73
2019-04-22T19:15:11.455Z,5.80
2019-04-22T19:16:39.907Z,5.53
2019-04-22T19:18:27.133Z,5.80
2019-04-22T19:20:03.115Z,5.90
2019-04-22T19:21:36.302Z,6.37
2019-04-22T19:23:13.111Z,6.60
2019-04-22T19:24:45.908Z,6.10
2019-04-22T19:26:32.482Z,6.33
2019-04-22T19:28:10.111Z,5.87
2019-04-22T19:29:36.800Z,6.60
2019-04-22T19:31:17.278Z,5.93
2019-04-22T19:32:50.807Z,6.30
2019-04-22T19:34:20.384Z,6.60
2019-04-22T19:36:01.500Z,6.27
2019-04-22T19:37:33.157Z,6.90
2019-04-22T19:39:09.091Z,7.00
2019-04-22T19:41:03.123Z,6.60
2019-04-22T19:42:31.031Z,7.27
2019-04-22T19:44:04.074Z,7.07
2019-04-22T19:45:40.067Z,6.73
2019-04-22T19:47:40.115Z,6.97
2019-04-22T19:48:56.511Z,6.70
2019-04-22T19:50:37.523Z,6.73
2019-04-22T19:53:47.375Z,6.83
2019-04-22T19:55:23.801Z,7.43
2019-04-22T19:56:53.151Z,7.60
2019-04-22T19:58:37.518Z,6.67
2019-04-22T20:00:19.090Z,7.23
2019-04-22T20:02:11.527Z,6.90
2019-04-22T20:04:23.076Z,8.17
2019-04-22T20:06:01.059Z,7.97
2019-04-22T20:07:38.651Z,7.03
2019-04-22T20:09:23.831Z,7.37
2019-04-22T20:10:59.858Z,7.77
2019-04-22T20:12:30.582Z,7.23
2019-04-22T20:14:12.049Z,7.93
2019-04-22T20:15:37.501Z,7.83
2019-04-22T20:17:30.058Z,8.60
2019-04-22T20:19:10.436Z,8.63
2019-04-22T20:20:41.310Z,8.60
2019-04-22T20:22:14.301Z,8.97
2019-04-22T20:23:43.053Z,9.37
2019-04-22T20:25:15.245Z,8.80
2019-04-22T20:27:05.202Z,8.30
2019-04-22T20:28:42.067Z,8.93
2019-04-22T20:30:18.683Z,10.07
2019-04-22T20:31:56.154Z,9.53
2019-04-22T20:33:43.261Z,9.55
2019-04-22T20:35:07.853Z,8.93
2019-04-22T20:37:03.714Z,9.33
2019-04-22T20:38:18.475Z,9.10
2019-04-22T20:39:58.728Z,9.33
2019-04-22T20:41:31.543Z,10.45
2019-04-22T20:43:15.017Z,9.00
2019-04-22T20:44:53.779Z,9.23
2019-04-22T20:46:22.466Z,9.67
2019-04-22T20:47:50.959Z,9.13
2019-04-22T20:49:35.543Z,9.90
2019-04-22T20:51:11.269Z,9.93
2019-04-22T20:52:54.111Z,10.87
2019-04-22T20:54:22.922Z,9.90
2019-04-22T20:56:06.800Z,9.93
2019-04-22T20:57:40.451Z,10.30
2019-04-22T20:59:19.340Z,10.33
2019-04-22T21:00:46.455Z,10.33
2019-04-22T21:02:23.744Z,10.30
2019-04-22T21:03:53.588Z,10.32
2019-04-22T21:05:33.947Z,10.90
2019-04-22T21:07:13.785Z,10.45
2019-04-22T21:09:02.261Z,11.20
2019-04-22T21:10:28.751Z,10.50
2019-04-22T21:12:07.605Z,10.27
2019-04-22T21:13:41.016Z,10.72
2019-04-22T21:15:26.292Z,10.95
2019-04-22T21:17:02.179Z,9.68
2019-04-22T21:18:30.590Z,11.30
2019-04-22T21:20:17.308Z,10.90
2019-04-22T21:21:50.341Z,10.25
2019-04-22T21:23:25.679Z,9.63
2019-04-22T21:24:59.348Z,9.95
2019-04-22T21:26:42.129Z,9.95
2019-04-22T21:28:15.716Z,10.15
2019-04-22T21:29:47.294Z,9.75
2019-04-22T21:31:33.713Z,9.65
2019-04-22T21:33:03.564Z,10.25
2019-04-22T21:34:49.116Z,11.08
2019-04-22T21:36:24.874Z,10.98
2019-04-22T21:38:03.052Z,11.25
2019-04-22T21:39:33.405Z,10.15
2019-04-22T21:41:09.867Z,10.38
2019-04-22T21:42:54.833Z,10.43
2019-04-22T21:44:21.254Z,10.88
2019-04-22T21:46:04.855Z,10.70
2019-04-22T21:47:48.784Z,9.73
2019-04-22T21:49:21.634Z,10.15
2019-04-22T21:50:59.879Z,10.55
2019-04-22T21:52:27.787Z,10.82
2019-04-22T21:54:13.506Z,11.25
2019-04-22T21:55:46.698Z,10.10
2019-04-22T21:57:30.634Z,10.10
2019-04-22T21:59:10.696Z,10.13
2019-04-22T22:01:10.274Z,11.22
2019-04-22T22:02:31.321Z,11.00
2019-04-22T22:04:15.270Z,10.70
2019-04-22T22:05:40.109Z,10.60
2019-04-22T22:07:11.353Z,9.58
2019-04-22T22:09:02.542Z,9.78
2019-04-22T22:10:39.792Z,10.15
2019-04-22T22:12:08.003Z,10.18
2019-04-22T22:13:45.631Z,10.72
2019-04-22T22:15:24.716Z,11.40
2019-04-22T22:16:53.034Z,10.43
2019-04-22T22:18:29.054Z,10.60
2019-04-22T22:20:12.747Z,10.50
2019-04-22T22:22:02.374Z,10.72
2019-04-22T22:23:36.383Z,10.45
2019-04-22T22:25:11.111Z,10.90
2019-04-22T22:26:45.060Z,10.80
2019-04-22T22:28:33.390Z,11.33
2019-04-22T22:30:06.668Z,10.72
2019-04-22T22:31:40.091Z,10.53
2019-04-22T22:33:10.471Z,10.43
2019-04-22T22:34:47.560Z,10.60
2019-04-22T22:36:20.219Z,11.20
2019-04-22T22:37:55.248Z,10.13
2019-04-22T22:39:31.129Z,11.18
2019-04-22T22:40:55.931Z,11.28
2019-04-22T22:42:36.986Z,10.63
2019-04-22T22:44:16.288Z,11.25
2019-04-22T22:45:52.821Z,11.70
2019-04-22T22:47:39.353Z,11.53
2019-04-22T22:49:26.458Z,11.65
2019-04-22T22:50:55.057Z,11.60
2019-04-22T22:54:12.048Z,11.25
2019-04-22T22:55:46.375Z,12.60
2019-04-22T22:57:28.773Z,11.55
2019-04-22T22:59:01.863Z,11.38
2019-04-22T23:00:35.663Z,11.55
2019-04-22T23:02:11.553Z,11.93
2019-04-22T23:03:58.488Z,11.15
2019-04-22T23:05:30.577Z,10.82
2019-04-22T23:07:13.042Z,10.58
2019-04-22T23:08:44.686Z,10.30
2019-04-22T23:10:19.729Z,10.85
2019-04-22T23:12:06.193Z,10.35
2019-04-22T23:13:31.595Z,11.05
2019-04-22T23:15:06.613Z,10.88